N172LF KMSP-
Flight info
| Callsign | N172LF |
|---|---|
| Flight time | N/A |
| Altitude | VFR |
| Route | |
| Aircraft | C210/L-VGD/C |
Departure
| Time | 2026-05-07 06:29 |
|---|---|
| Airport | Minneapolis–Saint Paul International Airport / Wold–Chamberlain Field (KMSP) |
Arrival
| Time | N/A |
|---|---|
| Airport | - |
| Time | Latitude | Longitude | Altitude | Speed | Heading |
|---|---|---|---|---|---|
| 2026-05-07 06:16 | 44.88946 | -93.21842 | 836 ft | 0 kts | 212° |
| 2026-05-07 06:19 | 44.88942 | -93.21844 | 836 ft | 5 kts | 180° |
| 2026-05-07 06:19 | 44.88927 | -93.21834 | 836 ft | 0 kts | 124° |
| 2026-05-07 06:19 | 44.88912 | -93.21821 | 835 ft | 4 kts | 191° |
| 2026-05-07 06:20 | 44.88865 | -93.21851 | 835 ft | 9 kts | 189° |
| 2026-05-07 06:20 | 44.88802 | -93.21920 | 834 ft | 11 kts | 218° |
| 2026-05-07 06:20 | 44.88749 | -93.21990 | 832 ft | 11 kts | 224° |
| 2026-05-07 06:20 | 44.88687 | -93.22080 | 833 ft | 13 kts | 225° |
| 2026-05-07 06:21 | 44.88670 | -93.22104 | 833 ft | 0 kts | 227° |
| 2026-05-07 06:21 | 44.88635 | -93.22151 | 832 ft | 13 kts | 224° |
| 2026-05-07 06:21 | 44.88569 | -93.22246 | 831 ft | 14 kts | 225° |
| 2026-05-07 06:21 | 44.88522 | -93.22312 | 829 ft | 0 kts | 224° |
| 2026-05-07 06:22 | 44.88510 | -93.22329 | 829 ft | 13 kts | 224° |
| 2026-05-07 06:22 | 44.88392 | -93.22221 | 832 ft | 13 kts | 122° |
| 2026-05-07 06:22 | 44.88344 | -93.22112 | 832 ft | 14 kts | 120° |
| 2026-05-07 06:23 | 44.88296 | -93.22001 | 832 ft | 12 kts | 122° |
| 2026-05-07 06:23 | 44.88257 | -93.21911 | 833 ft | 11 kts | 122° |
| 2026-05-07 06:23 | 44.88212 | -93.21807 | 831 ft | 15 kts | 121° |
| 2026-05-07 06:23 | 44.88152 | -93.21669 | 830 ft | 16 kts | 122° |
| 2026-05-07 06:24 | 44.88096 | -93.21539 | 829 ft | 16 kts | 121° |
| 2026-05-07 06:24 | 44.88037 | -93.21405 | 827 ft | 16 kts | 121° |
| 2026-05-07 06:24 | 44.88024 | -93.21374 | 828 ft | 7 kts | 121° |
| 2026-05-07 06:24 | 44.87997 | -93.21315 | 828 ft | 0 kts | 116° |
| 2026-05-07 06:25 | 44.87967 | -93.21243 | 829 ft | 18 kts | 121° |
| 2026-05-07 06:25 | 44.87896 | -93.21076 | 829 ft | 19 kts | 122° |
| 2026-05-07 06:25 | 44.87834 | -93.20935 | 830 ft | 16 kts | 122° |
| 2026-05-07 06:25 | 44.87778 | -93.20803 | 828 ft | 13 kts | 118° |
| 2026-05-07 06:26 | 44.87736 | -93.20706 | 828 ft | 6 kts | 121° |
| 2026-05-07 06:26 | 44.87735 | -93.20704 | 828 ft | 0 kts | 122° |
| 2026-05-07 06:26 | 44.87700 | -93.20678 | 827 ft | 6 kts | 198° |
| 2026-05-07 06:26 | 44.87695 | -93.20681 | 827 ft | 0 kts | 206° |
| 2026-05-07 06:27 | 44.87672 | -93.20718 | 827 ft | 13 kts | 245° |
| 2026-05-07 06:28 | 44.87677 | -93.20861 | 828 ft | 14 kts | 290° |
| 2026-05-07 06:28 | 44.87727 | -93.20985 | 829 ft | 18 kts | 300° |
| 2026-05-07 06:28 | 44.87900 | -93.21377 | 827 ft | 75 kts | 303° |
| 2026-05-07 06:28 | 44.88230 | -93.22109 | 980 ft | 100 kts | 303° |
| 2026-05-07 06:29 | 44.88668 | -93.23008 | 1175 ft | 122 kts | 303° |
| 2026-05-07 06:29 | 44.89160 | -93.24052 | 1478 ft | 134 kts | 303° |
| 2026-05-07 06:29 | 44.89691 | -93.25172 | 1844 ft | 138 kts | 305° |
| 2026-05-07 06:29 | 44.90257 | -93.26265 | 2241 ft | 138 kts | 308° |
| 2026-05-07 06:30 | 44.90860 | -93.27316 | 2644 ft | 137 kts | 310° |
| 2026-05-07 06:30 | 44.91475 | -93.28258 | 3183 ft | 127 kts | 314° |
| 2026-05-07 06:30 | 44.92142 | -93.29149 | 3389 ft | 137 kts | 316° |
| 2026-05-07 06:30 | 44.92848 | -93.30081 | 3365 ft | 140 kts | 315° |
| 2026-05-07 06:31 | 44.93552 | -93.31015 | 3420 ft | 136 kts | 315° |
| 2026-05-07 06:31 | 44.94233 | -93.31917 | 3493 ft | 135 kts | 315° |
| 2026-05-07 06:31 | 44.94922 | -93.32831 | 3504 ft | 137 kts | 315° |
| 2026-05-07 06:31 | 44.95619 | -93.33757 | 3504 ft | 138 kts | 315° |
| 2026-05-07 06:32 | 44.96321 | -93.34689 | 3506 ft | 138 kts | 315° |
| 2026-05-07 06:32 | 44.97022 | -93.35623 | 3508 ft | 139 kts | 315° |
| 2026-05-07 06:32 | 44.97723 | -93.36557 | 3515 ft | 139 kts | 315° |
| 2026-05-07 06:32 | 44.98424 | -93.37494 | 3513 ft | 139 kts | 315° |
| 2026-05-07 06:33 | 44.99128 | -93.38434 | 3509 ft | 139 kts | 315° |
| 2026-05-07 06:33 | 44.99829 | -93.39373 | 3506 ft | 139 kts | 315° |
| 2026-05-07 06:33 | 45.00530 | -93.40313 | 3490 ft | 139 kts | 315° |
| 2026-05-07 06:33 | 45.01221 | -93.41241 | 3494 ft | 139 kts | 315° |
| 2026-05-07 06:34 | 45.01931 | -93.42194 | 3493 ft | 139 kts | 315° |
| 2026-05-07 06:34 | 45.02623 | -93.43125 | 3489 ft | 139 kts | 315° |
| 2026-05-07 06:34 | 45.03324 | -93.44070 | 3488 ft | 139 kts | 315° |
| 2026-05-07 06:34 | 45.04023 | -93.45013 | 3488 ft | 139 kts | 315° |
| 2026-05-07 06:35 | 45.04721 | -93.45958 | 3494 ft | 139 kts | 315° |
| 2026-05-07 06:35 | 45.05420 | -93.46904 | 3487 ft | 139 kts | 314° |
| 2026-05-07 06:35 | 45.06116 | -93.47848 | 3489 ft | 139 kts | 314° |
| 2026-05-07 06:35 | 45.06811 | -93.48793 | 3487 ft | 139 kts | 314° |
| 2026-05-07 06:36 | 45.07509 | -93.49741 | 3492 ft | 139 kts | 314° |
| 2026-05-07 06:36 | 45.08205 | -93.50689 | 3490 ft | 139 kts | 314° |
| 2026-05-07 06:36 | 45.08900 | -93.51637 | 3490 ft | 139 kts | 314° |
| 2026-05-07 06:36 | 45.09595 | -93.52585 | 3494 ft | 139 kts | 314° |
| 2026-05-07 06:37 | 45.10289 | -93.53535 | 3492 ft | 139 kts | 314° |
| 2026-05-07 06:37 | 45.10940 | -93.54526 | 3469 ft | 137 kts | 298° |
| 2026-05-07 06:37 | 45.10871 | -93.55812 | 3473 ft | 138 kts | 241° |
| 2026-05-07 06:37 | 45.10181 | -93.56752 | 3486 ft | 143 kts | 210° |
| 2026-05-07 06:38 | 45.09191 | -93.56900 | 3476 ft | 150 kts | 169° |
| 2026-05-07 06:38 | 45.08344 | -93.56059 | 3482 ft | 152 kts | 130° |
| 2026-05-07 06:38 | 45.07707 | -93.54867 | 3488 ft | 153 kts | 129° |
| 2026-05-07 06:38 | 45.07039 | -93.53697 | 3495 ft | 153 kts | 130° |